createdAt,value
2023-05-13T00:00:29.872Z,20.73
2023-05-13T00:03:01.337Z,21.60
2023-05-13T00:05:30.541Z,19.90
2023-05-13T00:08:07.393Z,20.17
2023-05-13T00:10:37.849Z,19.13
2023-05-13T00:13:08.644Z,18.20
2023-05-13T00:15:37.374Z,19.57
2023-05-13T00:18:06.097Z,20.40
2023-05-13T00:20:34.821Z,19.73
2023-05-13T00:23:03.483Z,21.07
2023-05-13T00:25:32.124Z,21.03
2023-05-13T00:28:01.096Z,20.43
2023-05-13T00:30:31.102Z,20.30
2023-05-13T00:32:59.730Z,21.17
2023-05-13T00:35:30.792Z,20.57
2023-05-13T00:38:00.089Z,19.07
2023-05-13T00:40:28.976Z,19.50
2023-05-13T00:42:57.840Z,19.73
2023-05-13T00:45:26.270Z,19.60
2023-05-13T00:47:56.677Z,20.13
2023-05-13T00:50:25.240Z,20.50
2023-05-13T00:52:54.243Z,21.03
2023-05-13T00:55:23.254Z,21.40
2023-05-13T00:57:52.248Z,20.20
2023-05-13T01:00:21.802Z,20.67
2023-05-13T01:02:59.277Z,21.83
2023-05-13T01:05:32.918Z,19.67
2023-05-13T01:08:09.929Z,20.97
2023-05-13T01:10:44.017Z,21.83
2023-05-13T01:13:15.037Z,20.53
2023-05-13T01:15:49.504Z,20.60
2023-05-13T01:18:27.045Z,19.80
2023-05-13T01:20:58.096Z,21.07
2023-05-13T01:23:29.647Z,22.20
2023-05-13T01:25:58.127Z,20.60
2023-05-13T01:28:26.702Z,21.53
2023-05-13T01:30:56.421Z,19.53
2023-05-13T01:33:26.506Z,21.57
2023-05-13T01:35:55.307Z,21.33
2023-05-13T01:38:26.206Z,21.30
2023-05-13T01:40:57.837Z,20.03
2023-05-13T01:43:26.378Z,21.37
2023-05-13T01:45:55.427Z,21.17
2023-05-13T01:48:24.397Z,20.53
2023-05-13T01:50:53.340Z,20.70
2023-05-13T01:53:22.451Z,20.90
2023-05-13T01:55:51.989Z,21.50
2023-05-13T01:58:22.063Z,14.70
2023-05-13T02:00:50.652Z,20.00
2023-05-13T02:03:19.675Z,19.30
2023-05-13T02:05:49.202Z,21.10
2023-05-13T02:08:17.860Z,20.97
2023-05-13T02:10:46.912Z,21.20
2023-05-13T02:13:17.682Z,21.23
2023-05-13T02:15:47.614Z,21.67
2023-05-13T02:18:16.450Z,20.27
2023-05-13T02:20:45.903Z,21.17
2023-05-13T02:23:15.295Z,21.37
2023-05-13T02:25:44.258Z,19.77
2023-05-13T02:28:13.081Z,21.03
2023-05-13T02:30:42.008Z,20.83
2023-05-13T02:33:11.907Z,19.80
2023-05-13T02:35:40.944Z,21.67
2023-05-13T02:38:11.387Z,21.43
2023-05-13T02:40:40.283Z,21.27
2023-05-13T02:43:08.807Z,22.03
2023-05-13T02:45:37.681Z,22.07
2023-05-13T02:48:06.464Z,20.83
2023-05-13T02:50:36.867Z,20.97
2023-05-13T02:53:05.504Z,20.87
2023-05-13T02:55:34.379Z,20.40
2023-05-13T02:58:02.831Z,21.57
2023-05-13T03:00:31.724Z,21.00
2023-05-13T03:03:00.316Z,21.13
2023-05-13T03:05:30.004Z,21.37
2023-05-13T03:08:00.315Z,20.17
2023-05-13T03:10:28.802Z,20.43
2023-05-13T03:12:57.326Z,21.63
2023-05-13T03:15:27.024Z,21.27
2023-05-13T03:17:55.563Z,20.23
2023-05-13T03:20:24.562Z,21.63
2023-05-13T03:22:53.026Z,20.50
2023-05-13T03:25:23.541Z,21.77
2023-05-13T03:27:51.939Z,21.93
2023-05-13T03:30:21.779Z,23.03
2023-05-13T03:32:50.490Z,22.63
2023-05-13T03:35:19.238Z,21.63
2023-05-13T03:37:47.777Z,22.00
2023-05-13T03:40:16.642Z,22.83
2023-05-13T03:42:46.534Z,22.13
2023-05-13T03:45:15.005Z,22.77
2023-05-13T03:47:43.454Z,21.97
2023-05-13T03:50:13.977Z,22.27
2023-05-13T03:52:43.961Z,24.07
2023-05-13T03:55:15.206Z,22.30
2023-05-13T03:57:49.264Z,21.87
2023-05-13T04:00:18.402Z,22.97
2023-05-13T04:02:48.353Z,23.53
2023-05-13T04:05:17.847Z,22.97
2023-05-13T04:07:46.725Z,23.77
2023-05-13T04:10:15.743Z,23.43
2023-05-13T04:12:46.392Z,22.70
2023-05-13T04:15:15.376Z,22.43
2023-05-13T04:17:43.944Z,18.67
2023-05-13T04:20:12.945Z,23.47
2023-05-13T04:22:41.648Z,21.87
2023-05-13T04:25:13.742Z,22.20
2023-05-13T04:27:44.286Z,22.53
2023-05-13T04:30:16.158Z,22.70
2023-05-13T04:32:45.830Z,23.17
2023-05-13T04:35:17.187Z,23.87
2023-05-13T04:37:45.826Z,24.27
2023-05-13T04:40:14.958Z,23.87
2023-05-13T04:42:44.114Z,23.17
2023-05-13T04:45:17.077Z,23.47
2023-05-13T04:47:45.604Z,21.73
2023-05-13T04:50:14.416Z,21.10
2023-05-13T04:52:44.815Z,20.10
2023-05-13T04:55:13.473Z,18.67
2023-05-13T04:57:42.921Z,17.23
2023-05-13T05:00:15.128Z,17.97
2023-05-13T05:02:43.901Z,16.47
2023-05-13T05:05:15.647Z,14.17
2023-05-13T05:07:45.990Z,14.13
2023-05-13T05:10:15.715Z,14.33
2023-05-13T05:12:44.441Z,13.93
2023-05-13T05:15:16.799Z,15.23
2023-05-13T05:17:45.602Z,13.27
2023-05-13T05:20:15.068Z,13.37
2023-05-13T05:22:43.868Z,12.60
2023-05-13T05:25:13.542Z,12.37
2023-05-13T05:27:42.190Z,13.53
2023-05-13T05:30:16.794Z,15.67
2023-05-13T05:32:45.527Z,12.33
2023-05-13T05:35:15.980Z,12.70
2023-05-13T05:37:45.163Z,11.97
2023-05-13T05:40:14.806Z,12.63
2023-05-13T05:42:43.324Z,11.77
2023-05-13T05:45:18.007Z,13.07
2023-05-13T05:47:46.515Z,11.63
2023-05-13T05:50:14.966Z,12.77
2023-05-13T05:52:43.432Z,11.67
2023-05-13T05:55:15.248Z,11.20
2023-05-13T05:57:43.796Z,11.27
2023-05-13T06:00:21.443Z,13.20
2023-05-13T06:02:50.262Z,10.27
2023-05-13T06:05:19.725Z,9.97
2023-05-13T06:07:48.807Z,11.77
2023-05-13T06:10:17.529Z,9.37
2023-05-13T06:12:46.967Z,9.93
2023-05-13T06:15:15.608Z,9.23
2023-05-13T06:17:48.035Z,8.90
2023-05-13T06:20:16.720Z,12.80
2023-05-13T06:22:45.224Z,10.57
2023-05-13T06:25:14.376Z,9.90
2023-05-13T06:27:44.855Z,9.83
2023-05-13T06:30:14.269Z,10.60
2023-05-13T06:32:50.349Z,10.67
2023-05-13T06:35:32.023Z,9.17
2023-05-13T06:38:01.925Z,8.87
2023-05-13T06:40:31.622Z,8.23
2023-05-13T06:43:01.038Z,9.27
2023-05-13T06:45:31.329Z,8.70
2023-05-13T06:48:00.106Z,7.23
2023-05-13T06:50:30.176Z,7.90
2023-05-13T06:52:59.200Z,7.60
2023-05-13T06:55:32.698Z,8.63
2023-05-13T06:58:04.563Z,7.93
2023-05-13T07:00:41.238Z,9.23
2023-05-13T07:03:13.629Z,7.33
2023-05-13T07:05:45.193Z,7.30
2023-05-13T07:08:18.163Z,7.37
2023-05-13T07:10:51.313Z,9.73
2023-05-13T07:13:22.034Z,6.67
2023-05-13T07:15:50.764Z,5.80
2023-05-13T07:18:24.237Z,7.17
2023-05-13T07:20:54.866Z,7.30
2023-05-13T07:23:23.805Z,7.80
2023-05-13T07:25:53.073Z,6.50
2023-05-13T07:28:22.535Z,7.17
2023-05-13T07:30:53.685Z,5.43
2023-05-13T07:33:22.932Z,5.00
2023-05-13T07:35:52.137Z,6.07
2023-05-13T07:38:23.071Z,11.23
2023-05-13T07:40:53.948Z,7.77
2023-05-13T07:43:24.207Z,4.47
2023-05-13T07:45:53.067Z,6.07
2023-05-13T07:48:21.544Z,4.70
2023-05-13T07:50:52.474Z,4.77
2023-05-13T07:53:23.506Z,5.50
2023-05-13T07:55:52.150Z,6.60
2023-05-13T07:58:21.264Z,7.67
2023-05-13T08:00:51.210Z,6.13
2023-05-13T08:03:20.318Z,4.83
2023-05-13T08:05:50.043Z,4.40
2023-05-13T08:08:18.770Z,3.93
2023-05-13T08:10:48.991Z,4.43
2023-05-13T08:13:18.067Z,5.47
2023-05-13T08:15:50.170Z,8.73
2023-05-13T08:18:19.415Z,6.70
2023-05-13T08:20:48.340Z,7.60
2023-05-13T08:23:17.704Z,4.80
2023-05-13T08:25:50.316Z,7.40
2023-05-13T08:28:19.436Z,5.53
2023-05-13T08:30:48.385Z,6.57
2023-05-13T08:33:17.033Z,5.30
2023-05-13T08:35:46.916Z,4.60
2023-05-13T08:38:16.993Z,7.50
2023-05-13T08:40:46.416Z,5.00
2023-05-13T08:43:17.650Z,5.43
2023-05-13T08:45:49.332Z,6.70
2023-05-13T08:48:20.771Z,8.10
2023-05-13T08:50:50.375Z,5.73
2023-05-13T08:53:20.196Z,6.40
2023-05-13T08:55:49.795Z,6.00
2023-05-13T08:58:21.145Z,6.93
2023-05-13T09:00:55.037Z,6.77
2023-05-13T09:03:24.735Z,6.40
2023-05-13T09:05:54.614Z,5.67
2023-05-13T09:08:23.325Z,7.93
2023-05-13T09:10:52.246Z,6.97
2023-05-13T09:13:23.481Z,4.60
2023-05-13T09:15:53.017Z,6.30
2023-05-13T09:18:24.222Z,6.20
2023-05-13T09:20:52.999Z,7.13
2023-05-13T09:23:25.273Z,5.70
2023-05-13T09:25:54.393Z,5.27
2023-05-13T09:28:27.414Z,10.90
2023-05-13T09:30:57.716Z,6.47
2023-05-13T09:33:33.406Z,4.53
2023-05-13T09:36:06.357Z,6.27
2023-05-13T09:38:39.306Z,9.60
2023-05-13T09:41:10.150Z,7.87
2023-05-13T09:43:41.305Z,6.40
2023-05-13T09:46:12.753Z,9.00
2023-05-13T09:48:45.885Z,5.47
2023-05-13T09:51:16.495Z,6.07
2023-05-13T09:53:48.707Z,4.75
2023-05-13T09:56:24.672Z,5.80
2023-05-13T09:58:55.471Z,7.00
2023-05-13T10:01:28.229Z,10.90
2023-05-13T10:03:59.129Z,4.30
2023-05-13T10:06:31.798Z,9.47
2023-05-13T10:09:05.851Z,5.97
2023-05-13T10:11:40.803Z,5.80
2023-05-13T10:14:11.770Z,4.53
2023-05-13T10:16:42.086Z,5.97
2023-05-13T10:19:11.688Z,4.40
2023-05-13T10:21:42.448Z,4.80
2023-05-13T10:24:11.816Z,7.30
2023-05-13T10:26:43.893Z,5.20
2023-05-13T10:29:19.262Z,4.43
2023-05-13T10:31:49.480Z,10.40
2023-05-13T10:34:19.262Z,7.22
2023-05-13T10:37:02.878Z,5.53
2023-05-13T10:39:59.259Z,6.63
2023-05-13T10:42:41.463Z,7.45
2023-05-13T10:45:19.733Z,3.72
2023-05-13T10:47:56.664Z,7.45
2023-05-13T10:50:27.583Z,6.30
2023-05-13T10:52:58.657Z,3.38
2023-05-13T10:55:29.726Z,4.57
2023-05-13T10:58:12.638Z,4.53
2023-05-13T11:00:47.324Z,5.40
2023-05-13T11:03:17.765Z,9.20
2023-05-13T11:05:49.015Z,5.25
2023-05-13T11:08:38.297Z,4.18
2023-05-13T11:11:20.637Z,8.35
2023-05-13T11:13:52.757Z,3.88
2023-05-13T11:16:24.179Z,8.52
2023-05-13T11:18:54.723Z,8.77
2023-05-13T11:21:33.955Z,5.15
2023-05-13T11:24:08.058Z,6.00
2023-05-13T11:26:51.337Z,6.97
2023-05-13T11:29:34.515Z,4.90
2023-05-13T11:32:07.151Z,5.50
2023-05-13T11:34:40.242Z,4.03
2023-05-13T11:37:11.616Z,5.80
2023-05-13T11:39:42.521Z,6.57
2023-05-13T11:42:13.158Z,3.67
2023-05-13T11:44:48.005Z,5.07
2023-05-13T11:47:30.774Z,6.97
2023-05-13T11:50:00.005Z,5.75
2023-05-13T11:52:29.575Z,4.15
2023-05-13T11:54:59.490Z,5.53
2023-05-13T11:57:35.134Z,5.43
2023-05-13T12:00:07.135Z,4.57
2023-05-13T12:02:41.658Z,5.60
2023-05-13T12:05:13.585Z,4.93
2023-05-13T12:07:42.121Z,8.13
2023-05-13T12:10:14.031Z,6.28
2023-05-13T12:12:45.712Z,7.32
2023-05-13T12:15:16.594Z,5.53
2023-05-13T12:17:49.515Z,3.72
2023-05-13T12:20:19.552Z,4.75
2023-05-13T12:22:53.547Z,3.83
2023-05-13T12:25:42.730Z,5.20
2023-05-13T12:28:14.035Z,3.45
2023-05-13T12:30:45.736Z,4.43
2023-05-13T12:33:20.467Z,4.63
2023-05-13T12:35:51.161Z,4.72
2023-05-13T12:38:24.917Z,6.07
2023-05-13T12:40:54.994Z,3.58
2023-05-13T12:43:24.144Z,3.92
2023-05-13T12:45:58.284Z,3.65
2023-05-13T12:48:29.551Z,4.28
2023-05-13T12:51:01.964Z,3.45
2023-05-13T12:53:31.234Z,4.93
2023-05-13T12:55:59.834Z,5.55
2023-05-13T12:58:28.842Z,5.82
2023-05-13T13:00:58.126Z,5.38
2023-05-13T13:03:28.569Z,5.15
2023-05-13T13:05:58.301Z,3.45
2023-05-13T13:08:29.302Z,4.28
2023-05-13T13:11:01.098Z,7.78
2023-05-13T13:13:29.999Z,4.43
2023-05-13T13:16:00.088Z,3.83
2023-05-13T13:18:30.503Z,3.45
2023-05-13T13:20:59.334Z,5.38
2023-05-13T13:23:28.644Z,4.30
2023-05-13T13:26:08.655Z,5.85
2023-05-13T13:28:38.765Z,6.97
2023-05-13T13:31:07.972Z,3.75
2023-05-13T13:33:40.528Z,4.20
2023-05-13T13:36:10.809Z,3.97
2023-05-13T13:38:45.463Z,4.38
2023-05-13T13:41:14.585Z,4.70
2023-05-13T13:43:47.584Z,5.32
2023-05-13T13:46:16.511Z,3.60
2023-05-13T13:49:07.782Z,3.38
2023-05-13T13:51:47.131Z,3.95
2023-05-13T13:54:16.571Z,5.00
2023-05-13T13:56:52.512Z,3.28
2023-05-13T13:59:41.150Z,4.35
2023-05-13T14:02:17.968Z,8.85
2023-05-13T14:04:57.795Z,6.65
2023-05-13T14:07:26.573Z,3.95
2023-05-13T14:09:55.608Z,6.30
2023-05-13T14:12:25.189Z,3.50
2023-05-13T14:14:54.296Z,3.22
2023-05-13T14:17:22.918Z,3.30
2023-05-13T14:19:55.879Z,2.50
2023-05-13T14:22:25.790Z,4.15
2023-05-13T14:24:55.432Z,4.00
2023-05-13T14:27:25.356Z,5.07
2023-05-13T14:29:54.827Z,4.43
2023-05-13T14:32:24.623Z,4.57
2023-05-13T14:34:54.682Z,4.70
2023-05-13T14:37:24.106Z,3.60
2023-05-13T14:39:53.273Z,3.85
2023-05-13T14:42:22.384Z,6.05
2023-05-13T14:44:51.048Z,4.05
2023-05-13T14:47:19.654Z,3.30
2023-05-13T14:49:52.256Z,3.70
2023-05-13T14:52:22.930Z,3.58
2023-05-13T14:54:52.579Z,4.97
2023-05-13T14:57:21.636Z,3.85
2023-05-13T14:59:51.345Z,4.53
2023-05-13T15:02:20.554Z,4.68
2023-05-13T15:04:49.471Z,3.55
2023-05-13T15:07:18.804Z,4.78
2023-05-13T15:09:49.208Z,5.20
2023-05-13T15:12:26.044Z,3.05
2023-05-13T15:15:09.882Z,3.67
2023-05-13T15:17:45.535Z,4.55
2023-05-13T15:20:21.219Z,5.15
2023-05-13T15:22:50.164Z,4.53
2023-05-13T15:25:20.712Z,3.40
2023-05-13T15:27:50.296Z,3.60
2023-05-13T15:30:19.819Z,7.97
2023-05-13T15:32:56.484Z,4.07
2023-05-13T15:35:27.613Z,2.60
2023-05-13T15:37:57.907Z,3.95
2023-05-13T15:40:33.820Z,5.10
2023-05-13T15:43:04.939Z,3.75
2023-05-13T15:45:36.095Z,4.60
2023-05-13T15:48:06.028Z,2.65
2023-05-13T15:50:34.657Z,5.43
2023-05-13T15:53:03.610Z,4.30
2023-05-13T15:55:34.949Z,4.40
2023-05-13T15:58:03.605Z,3.42
2023-05-13T16:00:32.646Z,4.28
2023-05-13T16:03:01.616Z,6.47
2023-05-13T16:05:30.978Z,5.15
2023-05-13T16:08:00.308Z,6.40
2023-05-13T16:10:32.141Z,5.10
2023-05-13T16:13:05.032Z,7.97
2023-05-13T16:15:34.780Z,39.93
2023-05-13T16:18:04.364Z,36.73
2023-05-13T16:20:35.086Z,4.97
2023-05-13T16:23:07.947Z,5.87
2023-05-13T16:25:37.047Z,6.97
2023-05-13T16:28:07.318Z,6.53
2023-05-13T16:30:37.428Z,5.60
2023-05-13T16:33:08.134Z,5.93
2023-05-13T16:35:37.802Z,6.43
2023-05-13T16:38:06.616Z,6.50
2023-05-13T16:40:38.133Z,12.03
2023-05-13T16:43:08.546Z,29.47
2023-05-13T16:45:39.668Z,16.70
2023-05-13T16:48:08.546Z,15.70
2023-05-13T16:50:37.845Z,10.77
2023-05-13T16:53:07.159Z,10.00
2023-05-13T16:55:36.607Z,6.37
2023-05-13T16:58:05.417Z,4.83
2023-05-13T17:00:35.777Z,4.20
2023-05-13T17:03:05.046Z,7.97
2023-05-13T17:05:33.873Z,4.07
2023-05-13T17:08:04.215Z,6.13
2023-05-13T17:10:34.336Z,8.30
2023-05-13T17:13:03.334Z,3.93
2023-05-13T17:15:32.287Z,5.47
2023-05-13T17:18:03.549Z,8.17
2023-05-13T17:20:33.691Z,6.77
2023-05-13T17:23:02.900Z,8.80
2023-05-13T17:25:34.830Z,7.13
2023-05-13T17:28:04.122Z,12.00
2023-05-13T17:30:33.728Z,9.27
2023-05-13T17:33:04.844Z,6.63
2023-05-13T17:35:34.339Z,7.13
2023-05-13T17:38:04.081Z,8.10
2023-05-13T17:40:34.975Z,8.67
2023-05-13T17:43:07.211Z,9.73
2023-05-13T17:45:37.861Z,22.83
2023-05-13T17:48:11.946Z,16.93
2023-05-13T17:50:45.962Z,13.77
2023-05-13T17:53:16.120Z,10.17
2023-05-13T17:55:48.434Z,9.07
2023-05-13T17:58:18.923Z,6.90
2023-05-13T18:01:06.044Z,8.00
2023-05-13T18:03:37.364Z,7.87
2023-05-13T18:06:08.171Z,8.00
2023-05-13T18:08:38.241Z,7.13
2023-05-13T18:11:08.770Z,8.60
2023-05-13T18:13:37.916Z,4.90
2023-05-13T18:16:09.807Z,6.47
2023-05-13T18:18:42.684Z,8.03
2023-05-13T18:21:12.086Z,8.13
2023-05-13T18:23:41.333Z,6.57
2023-05-13T18:26:10.410Z,8.40
2023-05-13T18:28:39.410Z,6.57
2023-05-13T18:31:09.277Z,5.23
2023-05-13T18:33:40.141Z,6.93
2023-05-13T18:36:10.429Z,7.20
2023-05-13T18:38:50.164Z,7.70
2023-05-13T18:41:22.167Z,6.67
2023-05-13T18:43:54.149Z,6.77
2023-05-13T18:46:23.557Z,7.67
2023-05-13T18:49:00.894Z,5.90
2023-05-13T18:51:34.731Z,7.43
2023-05-13T18:54:05.792Z,9.47
2023-05-13T18:56:36.323Z,7.37
2023-05-13T18:59:13.611Z,7.03
2023-05-13T19:01:47.805Z,8.57
2023-05-13T19:04:23.783Z,7.30
2023-05-13T19:06:56.915Z,7.23
2023-05-13T19:09:30.204Z,7.87
2023-05-13T19:12:03.056Z,7.40
2023-05-13T19:14:49.375Z,7.03
2023-05-13T19:17:22.689Z,8.23
2023-05-13T19:20:02.785Z,9.03
2023-05-13T19:22:36.285Z,10.87
2023-05-13T19:25:05.777Z,9.87
2023-05-13T19:27:41.383Z,8.07
2023-05-13T19:30:14.890Z,8.63
2023-05-13T19:32:45.446Z,9.13
2023-05-13T19:35:21.785Z,10.37
2023-05-13T19:37:58.137Z,9.43
2023-05-13T19:40:27.436Z,9.23
2023-05-13T19:43:02.792Z,9.93
2023-05-13T19:45:32.412Z,10.07
2023-05-13T19:48:01.891Z,10.07
2023-05-13T19:50:36.913Z,10.43
2023-05-13T19:53:12.561Z,9.67
2023-05-13T19:55:42.220Z,10.67
2023-05-13T19:58:25.933Z,9.33
2023-05-13T20:00:57.586Z,10.37
2023-05-13T20:03:47.491Z,9.80
2023-05-13T20:06:26.045Z,9.53
2023-05-13T20:08:59.454Z,9.33
2023-05-13T20:11:38.931Z,9.23
2023-05-13T20:14:19.285Z,8.93
2023-05-13T20:16:51.398Z,11.53
2023-05-13T20:19:21.066Z,9.37
2023-05-13T20:21:59.841Z,9.47
2023-05-13T20:24:36.855Z,10.77
2023-05-13T20:27:06.575Z,10.30
2023-05-13T20:29:42.290Z,10.17
2023-05-13T20:32:14.201Z,10.47
2023-05-13T20:34:46.579Z,9.47
2023-05-13T20:37:28.112Z,10.20
2023-05-13T20:40:11.863Z,9.17
2023-05-13T20:42:43.418Z,10.37
2023-05-13T20:45:16.962Z,9.83
2023-05-13T20:47:46.222Z,9.87
2023-05-13T20:50:15.858Z,9.20
2023-05-13T20:52:48.132Z,11.27
2023-05-13T20:55:18.515Z,11.00
2023-05-13T20:57:48.048Z,11.70
2023-05-13T21:00:22.736Z,9.57
2023-05-13T21:02:56.392Z,10.33
2023-05-13T21:05:28.459Z,10.40
2023-05-13T21:08:16.668Z,9.77
2023-05-13T21:10:45.838Z,9.37
2023-05-13T21:13:23.795Z,9.83
2023-05-13T21:16:00.335Z,10.63
2023-05-13T21:18:32.848Z,9.43
2023-05-13T21:21:07.888Z,9.43
2023-05-13T21:23:44.896Z,11.43
2023-05-13T21:26:14.599Z,9.47
2023-05-13T21:28:43.825Z,8.67
2023-05-13T21:31:13.626Z,9.77
2023-05-13T21:33:49.430Z,9.17
2023-05-13T21:36:18.759Z,9.57
2023-05-13T21:38:54.469Z,9.43
2023-05-13T21:41:22.935Z,10.03
2023-05-13T21:43:51.633Z,9.13
2023-05-13T21:46:20.731Z,9.63
2023-05-13T21:48:51.146Z,9.37
2023-05-13T21:51:20.360Z,9.83
2023-05-13T21:53:51.507Z,9.87
2023-05-13T21:56:25.173Z,9.80
2023-05-13T21:58:57.570Z,9.80
2023-05-13T22:01:34.668Z,10.47
2023-05-13T22:04:07.492Z,10.43
2023-05-13T22:06:39.008Z,9.77
2023-05-13T22:09:09.363Z,10.40
2023-05-13T22:11:38.228Z,10.73
2023-05-13T22:14:07.080Z,11.03
2023-05-13T22:16:36.015Z,11.90
2023-05-13T22:19:05.101Z,10.37
2023-05-13T22:21:34.431Z,10.83
2023-05-13T22:24:05.296Z,10.80
2023-05-13T22:26:37.000Z,10.63
2023-05-13T22:29:06.710Z,10.60
2023-05-13T22:31:36.861Z,11.07
2023-05-13T22:34:05.688Z,10.90
2023-05-13T22:36:34.995Z,11.27
2023-05-13T22:39:04.597Z,10.20
2023-05-13T22:42:11.045Z,10.60
2023-05-13T22:44:43.690Z,10.57
2023-05-13T22:47:12.698Z,11.17
2023-05-13T22:49:41.364Z,11.33
2023-05-13T22:52:09.884Z,11.13
2023-05-13T22:54:38.335Z,10.10
2023-05-13T22:57:07.336Z,10.73
2023-05-13T22:59:36.410Z,11.07
2023-05-13T23:02:06.818Z,10.47
2023-05-13T23:04:35.783Z,11.07
2023-05-13T23:07:04.838Z,10.77
2023-05-13T23:09:34.163Z,10.73
2023-05-13T23:12:03.557Z,11.97
2023-05-13T23:14:32.513Z,11.67
2023-05-13T23:17:02.973Z,12.00
2023-05-13T23:19:33.401Z,11.77
2023-05-13T23:22:02.297Z,11.27
2023-05-13T23:24:33.591Z,12.10
2023-05-13T23:27:02.044Z,11.87
2023-05-13T23:29:30.733Z,12.67
2023-05-13T23:31:59.901Z,12.03
2023-05-13T23:34:28.737Z,15.47
2023-05-13T23:36:58.802Z,12.63
2023-05-13T23:39:27.579Z,13.47
2023-05-13T23:41:55.987Z,13.60
2023-05-13T23:44:24.935Z,14.37
2023-05-13T23:46:53.609Z,14.00
2023-05-13T23:49:22.344Z,14.47
2023-05-13T23:51:50.932Z,16.07
2023-05-13T23:54:20.978Z,14.43
2023-05-13T23:56:51.044Z,14.33
2023-05-13T23:59:20.090Z,14.43
